Etusivu
METAR-TAF:

METAR-TAF

Lentoasemat :

Johannesburg, Etelä-Afrikka

Leveyspiiri: 26-09S, Pituuspiiri: 28-00E, korkeus merenpinnasta: 1626 m

Tämänhetkinen sää

Tämä raportti tehtiin 46 minuuttia sitten, kello 06.00 UTC
Tuuli 1 kn lännestä/lounaasta
Lämpötila 8°C
Kosteus 57%
Ilmanpaine 1031 hPa

METAR: FAJB 140600Z AUTO 25001KT //// // ////// 08/M00 Q1031

Aika: 08:46 (06:46 UTC)


TAF: puuttuu

Säähavainnot ja -ennusteet yli 4000 lentoasemalta (METAR- ja TAF-raportit).

Käytössä olevat sääasemat on merkitty karttaan keltaisilla ja punaisilla pisteillä.

Aseta hiiri pisteen päälle nähdäksesi sääaseman nimen.

Klikkaa sitten nähdäksesi säähavainnot ja -ennusteet.

Kartan vaihtaminen: klikkaa mustalla rastilla varustettuja vihreitä pisteitä, niin voit zoomata sisään; viivalla varustettua vihreää pistettä, niin voit zoomata ulos tai vihreitä nuolia, niin pääset viereisille kartoille.


METAR-TAF: